createdAt,value
2017-08-28T00:00:24.313Z,-4.11
2017-08-28T00:01:18.336Z,-4.11
2017-08-28T00:02:18.297Z,-4.11
2017-08-28T00:03:13.397Z,-4.11
2017-08-28T00:04:13.568Z,-4.11
2017-08-28T00:05:07.458Z,-4.11
2017-08-28T00:06:08.506Z,-4.11
2017-08-28T00:07:09.552Z,-4.11
2017-08-28T00:08:09.568Z,-4.11
2017-08-28T00:09:09.537Z,-4.11
2017-08-28T00:10:04.568Z,-4.11
2017-08-28T00:10:58.694Z,-4.11
2017-08-28T00:11:58.681Z,-4.11
2017-08-28T00:12:53.748Z,-4.11
2017-08-28T00:13:48.741Z,-4.11
2017-08-28T00:14:49.920Z,-4.11
2017-08-28T00:15:49.788Z,-4.11
2017-08-28T00:16:49.942Z,-4.11
2017-08-28T00:17:37.959Z,-4.11
2017-08-28T00:18:31.905Z,-4.11
2017-08-28T00:19:26.062Z,-4.11
2017-08-28T00:20:20.113Z,-4.11
2017-08-28T00:21:14.086Z,-4.11
2017-08-28T00:22:08.137Z,-4.11
2017-08-28T00:23:03.180Z,-4.11
2017-08-28T00:23:52.232Z,-4.11
2017-08-28T00:24:46.284Z,-4.11
2017-08-28T00:25:40.232Z,-4.11
2017-08-28T00:26:35.320Z,-4.11
2017-08-28T00:27:23.364Z,-4.11
2017-08-28T00:28:18.443Z,-4.11
2017-08-28T00:29:12.459Z,-4.11
2017-08-28T00:30:13.533Z,-4.11
2017-08-28T00:31:13.538Z,-4.11
2017-08-28T00:32:13.601Z,-4.11
2017-08-28T00:33:07.509Z,-4.11
2017-08-28T00:34:07.681Z,-4.11
2017-08-28T00:35:02.662Z,-4.11
2017-08-28T00:35:57.693Z,-4.11
2017-08-28T00:36:58.735Z,-4.11
2017-08-28T00:37:58.803Z,-4.11
2017-08-28T00:38:53.868Z,-4.11
2017-08-28T00:39:53.813Z,-4.11
2017-08-28T00:40:47.847Z,-4.11
2017-08-28T00:41:48.868Z,-4.11
2017-08-28T00:42:48.949Z,-4.11
2017-08-28T00:43:43.973Z,-4.11
2017-08-28T00:44:43.923Z,-4.11
2017-08-28T00:45:37.993Z,-4.11
2017-08-28T00:46:38.097Z,-4.11
2017-08-28T00:47:33.076Z,-4.11
2017-08-28T00:48:28.194Z,-4.11
2017-08-28T00:49:28.143Z,-4.11
2017-08-28T00:50:23.172Z,-4.11
2017-08-28T00:51:18.267Z,-4.11
2017-08-28T00:52:24.248Z,-4.11
2017-08-28T00:53:18.242Z,-4.11
2017-08-28T00:54:18.237Z,-4.11
2017-08-28T00:55:13.380Z,-4.11
2017-08-28T00:56:13.405Z,-4.11
2017-08-28T00:57:07.389Z,-4.11
2017-08-28T00:58:07.442Z,-4.12
2017-08-28T00:59:02.470Z,-4.12
2017-08-28T00:59:57.581Z,-4.12
2017-08-28T01:00:58.627Z,-4.12
2017-08-28T01:01:59.623Z,-4.12
2017-08-28T01:02:54.655Z,-4.12
2017-08-28T01:03:48.773Z,-4.12
2017-08-28T01:04:48.679Z,-4.12
2017-08-28T01:05:43.730Z,-4.12
2017-08-28T01:06:43.762Z,-4.12
2017-08-28T01:07:43.792Z,-4.12
2017-08-28T01:08:49.799Z,-4.12
2017-08-28T01:09:44.781Z,-4.12
2017-08-28T01:10:44.899Z,-4.12
2017-08-28T01:11:39.885Z,-4.12
2017-08-28T01:12:39.968Z,-4.12
2017-08-28T01:13:40.019Z,-4.12
2017-08-28T01:14:46.026Z,-4.12
2017-08-28T01:15:45.974Z,-4.12
2017-08-28T01:16:47.023Z,-4.12
2017-08-28T01:17:47.126Z,-4.12
2017-08-28T01:18:47.067Z,-4.12
2017-08-28T01:19:41.105Z,-4.12
2017-08-28T01:20:41.317Z,-4.12
2017-08-28T01:21:36.254Z,-4.12
2017-08-28T01:22:36.295Z,-4.12
2017-08-28T01:23:30.357Z,-4.12
2017-08-28T01:24:30.297Z,-4.12
2017-08-28T01:25:25.391Z,-4.12
2017-08-28T01:26:20.454Z,-4.12
2017-08-28T01:27:20.423Z,-4.12
2017-08-28T01:28:15.477Z,-4.12
2017-08-28T01:29:10.595Z,-4.12
2017-08-28T01:30:11.513Z,-4.12
2017-08-28T01:31:11.525Z,-4.12
2017-08-28T01:32:11.629Z,-4.12
2017-08-28T01:33:06.592Z,-4.12
2017-08-28T01:34:00.646Z,-4.12
2017-08-28T01:35:00.662Z,-4.12
2017-08-28T01:35:55.693Z,-4.12
2017-08-28T01:36:55.828Z,-4.12
2017-08-28T01:37:49.833Z,-4.12
2017-08-28T01:38:49.805Z,-4.12
2017-08-28T01:39:44.890Z,-4.12
2017-08-28T01:40:40.007Z,-4.12
2017-08-28T01:41:39.995Z,-4.11
2017-08-28T01:42:35.014Z,-4.11
2017-08-28T01:43:30.012Z,-4.11
2017-08-28T01:44:31.157Z,-4.11
2017-08-28T01:45:31.044Z,-4.11
2017-08-28T01:46:31.212Z,-4.11
2017-08-28T01:47:26.147Z,-4.11
2017-08-28T01:48:20.233Z,-4.11
2017-08-28T01:49:20.319Z,-4.11
2017-08-28T01:50:15.068Z,-4.11
2017-08-28T01:51:15.369Z,-4.11
2017-08-28T01:52:09.369Z,-4.11
2017-08-28T01:53:09.432Z,-4.11
2017-08-28T01:54:04.425Z,-4.11
2017-08-28T01:54:59.442Z,-4.11
2017-08-28T01:55:59.545Z,-4.11
2017-08-28T01:56:54.556Z,-4.11
2017-08-28T01:57:49.606Z,-4.11
2017-08-28T01:58:50.634Z,-4.12
2017-08-28T01:59:50.641Z,-4.12
2017-08-28T02:00:50.703Z,-4.12
2017-08-28T02:01:45.718Z,-4.11
2017-08-28T02:02:39.808Z,-4.11
2017-08-28T02:03:39.903Z,-4.11
2017-08-28T02:04:34.880Z,-4.11
2017-08-28T02:05:34.886Z,-4.11
2017-08-28T02:06:28.954Z,-4.11
2017-08-28T02:07:28.940Z,-4.11
2017-08-28T02:08:24.003Z,-4.11
2017-08-28T02:09:19.007Z,-4.12
2017-08-28T02:10:19.018Z,-4.11
2017-08-28T02:11:14.100Z,-4.11
2017-08-28T02:12:09.070Z,-4.11
2017-08-28T02:13:10.070Z,-4.11
2017-08-28T02:14:10.165Z,-4.11
2017-08-28T02:15:10.220Z,-4.11
2017-08-28T02:16:05.279Z,-4.11
2017-08-28T02:16:59.211Z,-4.12
2017-08-28T02:17:59.316Z,-4.12
2017-08-28T02:18:54.301Z,-4.12
2017-08-28T02:19:54.307Z,-4.12
2017-08-28T02:20:48.455Z,-4.12
2017-08-28T02:21:48.404Z,-4.12
2017-08-28T02:22:43.489Z,-4.12
2017-08-28T02:23:38.516Z,-4.12
2017-08-28T02:24:38.583Z,-4.12
2017-08-28T02:25:33.562Z,-4.12
2017-08-28T02:26:28.689Z,-4.12
2017-08-28T02:27:29.746Z,-4.12
2017-08-28T02:28:29.687Z,-4.12
2017-08-28T02:29:29.733Z,-4.12
2017-08-28T02:30:24.795Z,-4.12
2017-08-28T02:31:18.801Z,-4.12
2017-08-28T02:32:18.861Z,-4.12
2017-08-28T02:33:13.866Z,-4.12
2017-08-28T02:34:13.935Z,-4.12
2017-08-28T02:35:07.937Z,-4.12
2017-08-28T02:36:07.894Z,-4.12
2017-08-28T02:37:03.002Z,-4.12
2017-08-28T02:37:58.039Z,-4.12
2017-08-28T02:38:58.086Z,-4.12
2017-08-28T02:39:53.105Z,-4.12
2017-08-28T02:40:48.153Z,-4.12
2017-08-28T02:41:49.185Z,-4.12
2017-08-28T02:42:50.132Z,-4.12
2017-08-28T02:43:50.269Z,-4.12
2017-08-28T02:44:51.340Z,-4.12
2017-08-28T02:45:45.292Z,-4.12
2017-08-28T02:46:46.382Z,-4.12
2017-08-28T02:47:46.341Z,-4.12
2017-08-28T02:48:41.382Z,-4.12
2017-08-28T02:49:41.667Z,-4.12
2017-08-28T02:50:35.535Z,-4.12
2017-08-28T02:51:35.550Z,-4.12
2017-08-28T02:52:30.512Z,-4.12
2017-08-28T02:53:30.562Z,-4.12
2017-08-28T02:54:30.625Z,-4.12
2017-08-28T02:55:30.655Z,-4.12
2017-08-28T02:56:24.625Z,-4.12
2017-08-28T02:57:24.656Z,-4.12
2017-08-28T02:58:19.782Z,-4.12
2017-08-28T02:59:14.820Z,-4.12
2017-08-28T03:00:14.793Z,-4.12
2017-08-28T03:01:09.982Z,-4.12
2017-08-28T03:02:04.939Z,-4.12
2017-08-28T03:03:10.955Z,-4.12
2017-08-28T03:04:04.962Z,-4.12
2017-08-28T03:05:05.050Z,-4.12
2017-08-28T03:05:59.908Z,-4.12
2017-08-28T03:07:00.093Z,-4.12
2017-08-28T03:07:54.148Z,-4.12
2017-08-28T03:08:54.110Z,-4.12
2017-08-28T03:09:49.093Z,-4.12
2017-08-28T03:10:44.159Z,-4.12
2017-08-28T03:11:44.208Z,-4.12
2017-08-28T03:12:39.216Z,-4.12
2017-08-28T03:13:34.295Z,-4.12
2017-08-28T03:14:34.344Z,-4.12
2017-08-28T03:15:29.317Z,-4.12
2017-08-28T03:16:24.409Z,-4.12
2017-08-28T03:17:25.436Z,-4.12
2017-08-28T03:18:25.502Z,-4.12
2017-08-28T03:19:25.509Z,-4.12
2017-08-28T03:20:20.550Z,-4.12
2017-08-28T03:21:14.545Z,-4.12
2017-08-28T03:22:14.488Z,-4.12
2017-08-28T03:23:09.628Z,-4.12
2017-08-28T03:24:09.695Z,-4.12
2017-08-28T03:25:03.716Z,-4.12
2017-08-28T03:26:03.713Z,-4.12
2017-08-28T03:26:58.721Z,-4.12
2017-08-28T03:27:53.777Z,-4.12
2017-08-28T03:28:53.742Z,-4.12
2017-08-28T03:29:48.837Z,-4.12
2017-08-28T03:30:43.858Z,-4.12
2017-08-28T03:31:44.814Z,-4.12
2017-08-28T03:32:44.932Z,-4.12
2017-08-28T03:33:44.881Z,-4.12
2017-08-28T03:34:39.954Z,-4.12
2017-08-28T03:35:33.973Z,-4.12
2017-08-28T03:36:33.963Z,-4.12
2017-08-28T03:37:29.048Z,-4.12
2017-08-28T03:38:29.241Z,-4.12
2017-08-28T03:39:23.159Z,-4.12
2017-08-28T03:40:23.128Z,-4.12
2017-08-28T03:41:18.361Z,-4.12
2017-08-28T03:42:13.195Z,-4.12
2017-08-28T03:43:13.269Z,-4.12
2017-08-28T03:44:08.343Z,-4.12
2017-08-28T03:45:03.358Z,-4.12
2017-08-28T03:46:04.392Z,-4.12
2017-08-28T03:47:04.479Z,-4.12
2017-08-28T03:48:04.524Z,-4.12
2017-08-28T03:48:59.480Z,-4.12
2017-08-28T03:49:59.566Z,-4.12
2017-08-28T03:50:59.207Z,-4.12
2017-08-28T03:51:53.306Z,-4.12
2017-08-28T03:52:53.693Z,-4.13
2017-08-28T03:53:48.361Z,-4.13
2017-08-28T03:54:48.335Z,-4.13
2017-08-28T03:55:48.474Z,-4.13
2017-08-28T03:56:48.576Z,-4.13
2017-08-28T03:57:42.852Z,-4.13
2017-08-28T03:58:42.541Z,-4.13
2017-08-28T03:59:37.837Z,-4.13
2017-08-28T04:00:37.842Z,-4.13
2017-08-28T04:01:31.747Z,-4.13
2017-08-28T04:02:31.689Z,-4.13
2017-08-28T04:03:27.174Z,-4.13
2017-08-28T04:04:21.680Z,-4.13
2017-08-28T04:05:21.959Z,-4.13
2017-08-28T04:06:16.899Z,-4.13
2017-08-28T04:07:12.035Z,-4.13
2017-08-28T04:08:13.229Z,-4.13
2017-08-28T04:09:12.891Z,-4.13
2017-08-28T04:10:13.198Z,-4.13
2017-08-28T04:11:08.230Z,-4.13
2017-08-28T04:12:08.381Z,-4.13
2017-08-28T04:13:08.307Z,-4.13
2017-08-28T04:14:02.481Z,-4.13
2017-08-28T04:15:02.392Z,-4.13
2017-08-28T04:15:57.519Z,-4.13
2017-08-28T04:16:52.522Z,-4.13
2017-08-28T04:17:52.629Z,-4.12
2017-08-28T04:18:47.560Z,-4.12
2017-08-28T04:19:42.517Z,-4.12
2017-08-28T04:20:42.678Z,-4.12
2017-08-28T04:21:37.725Z,-4.12
2017-08-28T04:22:32.732Z,-4.12
2017-08-28T04:23:32.682Z,-4.12
2017-08-28T04:24:27.740Z,-4.12
2017-08-28T04:25:22.786Z,-4.12
2017-08-28T04:26:16.814Z,-4.12
2017-08-28T04:27:16.921Z,-4.12
2017-08-28T04:28:11.896Z,-4.12
2017-08-28T04:29:11.887Z,-4.12
2017-08-28T04:30:11.930Z,-4.12
2017-08-28T04:31:12.083Z,-4.13
2017-08-28T04:32:06.050Z,-4.13
2017-08-28T04:33:06.019Z,-4.13
2017-08-28T04:34:01.155Z,-4.13
2017-08-28T04:34:56.225Z,-4.13
2017-08-28T04:35:50.271Z,-4.13
2017-08-28T04:36:50.212Z,-4.13
2017-08-28T04:37:45.516Z,-4.13
2017-08-28T04:38:40.277Z,-4.13
2017-08-28T04:39:40.354Z,-4.13
2017-08-28T04:40:35.403Z,-4.13
2017-08-28T04:41:35.421Z,-4.13
2017-08-28T04:42:36.448Z,-4.13
2017-08-28T04:43:37.441Z,-4.13
2017-08-28T04:44:31.551Z,-4.13
2017-08-28T04:45:31.581Z,-4.13
2017-08-28T04:46:26.500Z,-4.13
2017-08-28T04:47:26.520Z,-4.13
2017-08-28T04:48:27.552Z,-4.13
2017-08-28T04:49:28.659Z,-4.13
2017-08-28T04:50:29.799Z,-4.13
2017-08-28T04:51:23.686Z,-4.13
2017-08-28T04:52:23.770Z,-4.12
2017-08-28T04:53:18.807Z,-4.12
2017-08-28T04:54:18.815Z,-4.12
2017-08-28T04:55:19.848Z,-4.12
2017-08-28T04:56:20.969Z,-4.12
2017-08-28T04:57:21.963Z,-4.12
2017-08-28T04:58:15.997Z,-4.12
2017-08-28T04:59:16.050Z,-4.12
2017-08-28T05:00:11.098Z,-4.12
2017-08-28T05:01:06.065Z,-4.12
2017-08-28T05:02:06.116Z,-4.12
2017-08-28T05:03:06.206Z,-4.12
2017-08-28T05:03:55.146Z,-4.12
2017-08-28T05:04:44.162Z,-4.12
2017-08-28T05:05:33.230Z,-4.12
2017-08-28T05:06:21.340Z,-4.12
2017-08-28T05:07:15.384Z,-4.12
2017-08-28T05:08:03.410Z,-4.12
2017-08-28T05:08:52.498Z,-4.12
2017-08-28T05:09:40.434Z,-4.12
2017-08-28T05:10:29.535Z,-4.12
2017-08-28T05:11:17.536Z,-4.12
2017-08-28T05:12:11.597Z,-4.12
2017-08-28T05:13:11.530Z,-4.12
2017-08-28T05:14:11.712Z,-4.12
2017-08-28T05:15:11.668Z,-4.12
2017-08-28T05:16:11.797Z,-4.12
2017-08-28T05:17:11.772Z,-4.12
2017-08-28T05:18:11.728Z,-4.12
2017-08-28T05:19:06.895Z,-4.12
2017-08-28T05:20:01.919Z,-4.12
2017-08-28T05:20:50.984Z,-4.12
2017-08-28T05:21:38.967Z,-4.12
2017-08-28T05:22:27.967Z,-4.12
2017-08-28T05:23:16.041Z,-4.12
2017-08-28T05:24:05.023Z,-4.12
2017-08-28T05:24:54.087Z,-4.12
2017-08-28T05:25:43.176Z,-4.12
2017-08-28T05:26:32.173Z,-4.12
2017-08-28T05:27:32.359Z,-4.12
2017-08-28T05:28:32.244Z,-4.11
2017-08-28T05:29:32.386Z,-4.12
2017-08-28T05:30:26.343Z,-4.12
2017-08-28T05:31:26.443Z,-4.11
2017-08-28T05:32:15.552Z,-4.11
2017-08-28T05:33:04.483Z,-4.11
2017-08-28T05:33:52.570Z,-4.11
2017-08-28T05:34:52.542Z,-4.11
2017-08-28T05:35:47.580Z,-4.11
2017-08-28T05:36:35.637Z,-4.10
2017-08-28T05:37:23.817Z,-4.10
2017-08-28T05:38:17.706Z,-4.10
2017-08-28T05:39:11.729Z,-4.10
2017-08-28T05:40:06.918Z,-4.10
2017-08-28T05:41:01.826Z,-4.09
2017-08-28T05:41:49.954Z,-4.09
2017-08-28T05:42:44.967Z,-4.09
2017-08-28T05:43:44.657Z,-4.09
2017-08-28T05:44:33.865Z,-4.09
2017-08-28T05:45:21.913Z,-4.09
2017-08-28T05:46:10.954Z,-4.08
2017-08-28T05:46:59.096Z,-4.08
2017-08-28T05:47:48.223Z,-4.08
2017-08-28T05:48:42.192Z,-4.09
2017-08-28T05:49:31.172Z,-4.09
2017-08-28T05:50:25.230Z,-4.09
2017-08-28T05:51:12.994Z,-4.09
2017-08-28T05:52:02.457Z,-4.09
2017-08-28T05:52:56.437Z,-4.09
2017-08-28T05:53:57.456Z,-4.09
2017-08-28T05:54:52.561Z,-4.10
2017-08-28T05:55:46.635Z,-4.10
2017-08-28T05:56:34.618Z,-4.10
2017-08-28T05:57:22.519Z,-4.10
2017-08-28T05:58:22.395Z,-4.10
2017-08-28T05:59:17.703Z,-4.10
2017-08-28T06:00:17.814Z,-4.10
2017-08-28T06:01:11.905Z,-4.10
2017-08-28T06:02:11.859Z,-4.10
2017-08-28T06:03:06.359Z,-4.10
2017-08-28T06:03:53.944Z,-4.10
2017-08-28T06:04:41.957Z,-4.10
2017-08-28T06:05:43.024Z,-4.10
2017-08-28T06:06:36.788Z,-4.10
2017-08-28T06:07:31.050Z,-4.09
2017-08-28T06:08:25.077Z,-4.09
2017-08-28T06:09:13.209Z,-4.09
2017-08-28T06:10:07.248Z,-4.09
2017-08-28T06:11:02.159Z,-4.08
2017-08-28T06:11:56.386Z,-4.07
2017-08-28T06:12:57.375Z,-4.08
2017-08-28T06:13:51.391Z,-4.08
2017-08-28T06:14:46.472Z,-4.07
2017-08-28T06:15:46.583Z,-4.07
2017-08-28T06:16:41.597Z,-4.07
2017-08-28T06:17:35.631Z,-4.07
2017-08-28T06:18:24.634Z,-4.07
2017-08-28T06:19:19.817Z,-4.07
2017-08-28T06:20:19.783Z,-4.07
2017-08-28T06:21:13.791Z,-4.07
2017-08-28T06:22:08.840Z,-4.06
2017-08-28T06:22:57.870Z,-4.06
2017-08-28T06:23:57.960Z,-4.06
2017-08-28T06:24:53.042Z,-4.06
2017-08-28T06:25:46.991Z,-4.06
2017-08-28T06:26:41.055Z,-4.06
2017-08-28T06:27:36.159Z,-4.07
2017-08-28T06:28:30.157Z,-4.06
2017-08-28T06:29:24.357Z,-4.06
2017-08-28T06:30:19.283Z,-4.05
2017-08-28T06:31:08.361Z,-4.05
2017-08-28T06:32:03.380Z,-4.05
2017-08-28T06:32:58.379Z,-4.05
2017-08-28T06:33:47.447Z,-4.05
2017-08-28T06:34:35.596Z,-4.04
2017-08-28T06:35:23.678Z,-4.04
2017-08-28T06:36:18.577Z,-4.04
2017-08-28T06:37:07.585Z,-4.04
2017-08-28T06:38:01.730Z,-4.04
2017-08-28T06:38:55.719Z,-4.04
2017-08-28T06:39:43.822Z,-4.04
2017-08-28T06:40:37.979Z,-4.04
2017-08-28T06:41:31.981Z,-4.04
2017-08-28T06:42:32.941Z,-4.04
2017-08-28T06:43:34.117Z,-4.03
2017-08-28T06:44:27.968Z,5.62
2017-08-28T06:45:17.089Z,-0.75
2017-08-28T06:46:12.442Z,-4.03
2017-08-28T06:47:07.159Z,6.08
2017-08-28T06:48:01.249Z,-4.03
2017-08-28T06:48:55.293Z,-0.82
2017-08-28T06:49:43.347Z,14.43
2017-08-28T06:50:37.456Z,0.60
2017-08-28T06:51:25.479Z,10.18
2017-08-28T06:52:26.519Z,9.26
2017-08-28T06:53:21.540Z,7.43
2017-08-28T06:54:09.671Z,7.66
2017-08-28T06:54:58.686Z,21.83
2017-08-28T06:55:47.635Z,17.18
2017-08-28T06:56:36.882Z,19.52
2017-08-28T06:57:31.875Z,17.89
2017-08-28T06:58:26.917Z,6.45
2017-08-28T06:59:27.941Z,9.80
2017-08-28T07:00:22.047Z,-4.04
2017-08-28T07:01:17.004Z,3.75
2017-08-28T07:02:05.145Z,12.83
2017-08-28T07:02:59.119Z,1.23
2017-08-28T07:03:59.205Z,16.00
2017-08-28T07:04:47.305Z,19.11
2017-08-28T07:05:36.334Z,16.74
2017-08-28T07:06:25.437Z,14.14
2017-08-28T07:07:25.435Z,7.90
2017-08-28T07:08:20.412Z,20.07
2017-08-28T07:09:26.509Z,31.17
2017-08-28T07:10:20.593Z,28.85
2017-08-28T07:11:15.686Z,30.91
2017-08-28T07:12:04.611Z,34.34
2017-08-28T07:12:53.772Z,33.15
2017-08-28T07:13:47.711Z,31.25
2017-08-28T07:14:42.841Z,29.35
2017-08-28T07:15:36.820Z,29.01
2017-08-28T07:16:24.947Z,23.55
2017-08-28T07:17:24.966Z,22.62
2017-08-28T07:18:19.032Z,27.22
2017-08-28T07:19:13.992Z,29.34
2017-08-28T07:20:08.158Z,32.88
2017-08-28T07:20:56.183Z,37.47
2017-08-28T07:21:51.277Z,39.75
2017-08-28T07:22:40.309Z,34.78
2017-08-28T07:23:34.404Z,39.32
2017-08-28T07:24:35.456Z,40.11
2017-08-28T07:25:29.473Z,33.09
2017-08-28T07:26:18.550Z,31.27
2017-08-28T07:27:07.553Z,36.07
2017-08-28T07:28:02.722Z,33.33
2017-08-28T07:28:51.739Z,32.39
2017-08-28T07:29:52.772Z,34.50
2017-08-28T07:30:46.842Z,33.56
2017-08-28T07:31:35.837Z,31.89
2017-08-28T07:32:24.984Z,37.37
2017-08-28T07:33:19.023Z,34.48
2017-08-28T07:34:08.124Z,38.71
2017-08-28T07:35:03.182Z,41.74
2017-08-28T07:35:57.274Z,40.99
2017-08-28T07:36:57.200Z,36.13
2017-08-28T07:37:46.317Z,34.34
2017-08-28T07:38:41.350Z,37.28
2017-08-28T07:39:35.415Z,42.35
2017-08-28T07:40:24.457Z,40.88
2017-08-28T07:41:24.424Z,38.12
2017-08-28T07:42:18.531Z,43.29
2017-08-28T07:43:18.595Z,38.75
2017-08-28T07:44:12.609Z,42.40
2017-08-28T07:45:07.747Z,40.27
2017-08-28T07:46:07.701Z,42.66
2017-08-28T07:46:56.839Z,42.48
2017-08-28T07:47:45.955Z,41.94
2017-08-28T07:48:39.953Z,45.95
2017-08-28T07:49:39.942Z,45.47
2017-08-28T07:50:34.128Z,43.97
2017-08-28T07:51:29.160Z,41.43
2017-08-28T07:52:23.150Z,38.55
2017-08-28T07:53:18.324Z,43.73
2017-08-28T07:54:07.233Z,43.33
2017-08-28T07:54:56.422Z,43.81
2017-08-28T07:55:50.435Z,44.84
2017-08-28T07:56:38.442Z,43.91
2017-08-28T07:57:27.470Z,42.49
2017-08-28T07:58:28.595Z,44.26
2017-08-28T07:59:22.556Z,42.85
2017-08-28T08:00:11.776Z,44.33
2017-08-28T08:01:00.849Z,44.61
2017-08-28T08:01:54.824Z,40.83
2017-08-28T08:02:48.891Z,37.54
2017-08-28T08:03:42.887Z,34.34
2017-08-28T08:04:44.013Z,33.63
2017-08-28T08:05:32.040Z,35.75
2017-08-28T08:06:26.134Z,39.47
2017-08-28T08:07:15.139Z,35.30
2017-08-28T08:08:04.186Z,37.56
2017-08-28T08:08:58.284Z,35.58
2017-08-28T08:09:46.309Z,31.96
2017-08-28T08:10:40.387Z,29.81
2017-08-28T08:11:28.445Z,30.75
2017-08-28T08:12:17.464Z,35.20
2017-08-28T08:13:17.605Z,29.32
2017-08-28T08:14:06.671Z,38.71
2017-08-28T08:14:55.704Z,39.94
2017-08-28T08:15:49.751Z,41.45
2017-08-28T08:16:37.857Z,39.68
2017-08-28T08:17:31.831Z,40.11
2017-08-28T08:18:31.955Z,46.93
2017-08-28T08:19:19.907Z,45.94
2017-08-28T08:20:08.975Z,46.62
2017-08-28T08:20:58.065Z,47.18
2017-08-28T08:21:58.202Z,46.91
2017-08-28T08:22:52.156Z,45.62
2017-08-28T08:23:46.298Z,42.00
2017-08-28T08:24:34.373Z,42.56
2017-08-28T08:25:29.406Z,45.96
2017-08-28T08:26:18.526Z,47.20
2017-08-28T08:27:13.620Z,46.22
2017-08-28T08:28:14.644Z,46.68
2017-08-28T08:29:14.669Z,47.37
2017-08-28T08:30:02.625Z,46.45
2017-08-28T08:31:02.803Z,46.41
2017-08-28T08:31:57.792Z,47.99
2017-08-28T08:32:52.055Z,47.82
2017-08-28T08:33:45.947Z,46.86
2017-08-28T08:34:45.987Z,47.73
2017-08-28T08:35:40.059Z,47.02
2017-08-28T08:36:29.119Z,46.74
2017-08-28T08:37:30.129Z,48.44
2017-08-28T08:38:25.234Z,47.09
2017-08-28T08:39:20.288Z,47.41
2017-08-28T08:40:14.369Z,47.79
2017-08-28T08:41:03.411Z,47.13
2017-08-28T08:42:04.522Z,47.75
2017-08-28T08:43:04.501Z,47.65
2017-08-28T08:43:53.580Z,48.16
2017-08-28T08:44:42.648Z,48.28
2017-08-28T08:45:31.735Z,47.50
2017-08-28T08:46:25.774Z,47.64
2017-08-28T08:47:20.855Z,47.07
2017-08-28T08:48:15.872Z,47.63
2017-08-28T08:49:09.927Z,48.11
2017-08-28T08:50:05.020Z,48.26
2017-08-28T08:51:00.041Z,48.74
2017-08-28T08:51:54.078Z,48.73
2017-08-28T08:52:48.306Z,48.70
2017-08-28T08:53:48.237Z,47.65
2017-08-28T08:54:37.327Z,47.78
2017-08-28T08:55:25.356Z,48.87
2017-08-28T08:56:13.438Z,48.10
2017-08-28T08:57:01.517Z,48.37
2017-08-28T08:57:49.648Z,48.54
2017-08-28T08:58:43.630Z,47.98
2017-08-28T08:59:37.768Z,48.83
2017-08-28T09:00:31.712Z,48.40
2017-08-28T09:01:25.843Z,48.47
2017-08-28T09:02:25.776Z,48.64
2017-08-28T09:03:14.877Z,48.87
2017-08-28T09:04:08.962Z,48.42
2017-08-28T09:04:58.070Z,48.47
2017-08-28T09:05:58.005Z,47.15
2017-08-28T09:06:52.063Z,47.46
2017-08-28T09:07:47.231Z,48.21
2017-08-28T09:08:36.279Z,48.40
2017-08-28T09:09:30.323Z,47.43
2017-08-28T09:10:18.344Z,46.14
2017-08-28T09:11:12.493Z,47.70
2017-08-28T09:12:06.570Z,46.57
2017-08-28T09:12:55.633Z,46.58
2017-08-28T09:13:50.724Z,47.40
2017-08-28T09:14:44.715Z,44.94
2017-08-28T09:15:38.886Z,44.75
2017-08-28T09:16:27.873Z,45.95
2017-08-28T09:17:22.950Z,47.36
2017-08-28T09:18:18.005Z,44.76
2017-08-28T09:19:18.064Z,45.85
2017-08-28T09:20:18.092Z,46.30
2017-08-28T09:21:12.211Z,46.67
2017-08-28T09:22:12.198Z,46.90
2017-08-28T09:23:07.354Z,46.20
2017-08-28T09:24:01.381Z,46.92
2017-08-28T09:24:50.510Z,48.19
2017-08-28T09:25:45.477Z,47.71
2017-08-28T09:26:34.586Z,47.78
2017-08-28T09:27:23.639Z,47.38
2017-08-28T09:28:17.685Z,48.33
2017-08-28T09:29:11.816Z,48.01
2017-08-28T09:30:06.806Z,47.54
2017-08-28T09:30:55.899Z,47.27
2017-08-28T09:31:55.926Z,47.97
2017-08-28T09:32:43.961Z,48.54
2017-08-28T09:33:32.069Z,48.68
2017-08-28T09:34:27.217Z,48.39
2017-08-28T09:35:16.126Z,48.55
2017-08-28T09:36:05.206Z,48.51
2017-08-28T09:37:00.338Z,48.65
2017-08-28T09:37:48.484Z,48.65
2017-08-28T09:38:48.363Z,46.24
2017-08-28T09:39:36.489Z,47.68
2017-08-28T09:40:25.585Z,48.28
2017-08-28T09:41:20.604Z,46.91
2017-08-28T09:42:15.744Z,44.79
2017-08-28T09:43:10.790Z,45.33
2017-08-28T09:44:04.789Z,44.70
2017-08-28T09:44:59.829Z,46.59
2017-08-28T09:45:54.952Z,44.52
2017-08-28T09:46:48.971Z,44.10
2017-08-28T09:47:49.129Z,44.52
2017-08-28T09:48:49.050Z,43.94
2017-08-28T09:49:43.319Z,43.44
2017-08-28T09:50:38.256Z,43.53
2017-08-28T09:51:27.298Z,42.33
2017-08-28T09:52:21.303Z,44.14
2017-08-28T09:53:21.405Z,44.37
2017-08-28T09:54:16.559Z,44.01
2017-08-28T09:55:10.602Z,41.23
2017-08-28T09:56:04.652Z,42.26
2017-08-28T09:56:59.678Z,41.64
2017-08-28T09:57:53.857Z,42.80
2017-08-28T09:58:47.834Z,42.68
2017-08-28T09:59:35.898Z,44.27
2017-08-28T10:00:30.085Z,44.80
2017-08-28T10:01:24.124Z,43.87
2017-08-28T10:02:13.152Z,42.57
2017-08-28T10:03:02.137Z,40.39
2017-08-28T10:03:57.287Z,42.40
2017-08-28T10:04:52.296Z,43.38
2017-08-28T10:05:41.390Z,45.71
2017-08-28T10:06:29.431Z,45.82
2017-08-28T10:07:23.485Z,46.60
2017-08-28T10:08:17.631Z,44.74
2017-08-28T10:09:06.582Z,45.10
2017-08-28T10:09:54.769Z,44.91
2017-08-28T10:10:49.035Z,46.87
2017-08-28T10:11:43.869Z,47.14
2017-08-28T10:12:32.930Z,44.62
2017-08-28T10:13:26.978Z,46.90
2017-08-28T10:14:15.997Z,43.95
2017-08-28T10:15:10.112Z,44.35
2017-08-28T10:15:59.427Z,44.66
2017-08-28T10:16:54.293Z,43.41
2017-08-28T10:17:54.510Z,43.50
2017-08-28T10:18:49.322Z,42.51
2017-08-28T10:19:43.528Z,43.04
2017-08-28T10:20:37.627Z,41.52
2017-08-28T10:21:26.680Z,42.12
2017-08-28T10:22:21.710Z,44.16
2017-08-28T10:23:15.728Z,40.59
2017-08-28T10:24:09.884Z,40.62
2017-08-28T10:24:58.976Z,43.05
2017-08-28T10:25:47.996Z,42.40
2017-08-28T10:26:43.096Z,41.56
2017-08-28T10:27:32.196Z,42.87
2017-08-28T10:28:32.230Z,43.49
2017-08-28T10:29:32.364Z,43.06
2017-08-28T10:30:32.452Z,43.58
2017-08-28T10:31:21.496Z,42.07
2017-08-28T10:32:15.613Z,41.20
2017-08-28T10:33:09.721Z,42.31
2017-08-28T10:34:04.781Z,41.65
2017-08-28T10:34:59.780Z,40.85
2017-08-28T10:35:54.920Z,41.80
2017-08-28T10:36:49.986Z,40.67
2017-08-28T10:37:50.463Z,42.05
2017-08-28T10:38:51.098Z,42.96
2017-08-28T10:39:40.234Z,43.05
2017-08-28T10:40:34.221Z,41.42
2017-08-28T10:41:29.348Z,42.35
2017-08-28T10:42:18.455Z,42.31
2017-08-28T10:43:13.553Z,42.96
2017-08-28T10:44:02.586Z,40.80
2017-08-28T10:45:02.659Z,42.66
2017-08-28T10:45:51.711Z,41.19
2017-08-28T10:46:51.763Z,42.04
2017-08-28T10:47:51.921Z,40.43
2017-08-28T10:48:40.869Z,40.66
2017-08-28T10:49:36.027Z,40.16
2017-08-28T10:50:30.031Z,37.22
2017-08-28T10:51:30.151Z,39.38
2017-08-28T10:52:25.224Z,37.64
2017-08-28T10:53:14.305Z,38.09
2017-08-28T10:54:08.457Z,36.44
2017-08-28T10:55:03.577Z,38.14
2017-08-28T10:56:03.616Z,38.97
2017-08-28T10:57:04.695Z,41.45
2017-08-28T10:57:59.700Z,39.70
2017-08-28T10:58:54.824Z,40.65
2017-08-28T10:59:54.985Z,39.63
2017-08-28T11:00:42.989Z,39.36
2017-08-28T11:01:32.026Z,40.68
2017-08-28T11:02:26.119Z,40.67
2017-08-28T11:03:26.196Z,40.48
2017-08-28T11:04:20.330Z,38.22
2017-08-28T11:05:09.435Z,37.13
2017-08-28T11:06:09.469Z,37.16
2017-08-28T11:07:04.550Z,37.50
2017-08-28T11:07:59.709Z,37.43
2017-08-28T11:08:59.798Z,38.39
2017-08-28T11:09:59.807Z,37.14
2017-08-28T11:10:47.916Z,37.80
2017-08-28T11:11:53.876Z,35.90
2017-08-28T11:12:43.013Z,36.75
2017-08-28T11:13:37.157Z,38.07
2017-08-28T11:14:38.265Z,41.15
2017-08-28T11:15:33.339Z,39.23
2017-08-28T11:16:28.401Z,38.39
2017-08-28T11:17:22.568Z,39.06
2017-08-28T11:18:17.568Z,37.47
2017-08-28T11:19:11.700Z,39.76
2017-08-28T11:20:06.764Z,37.24
2017-08-28T11:21:01.876Z,38.73
2017-08-28T11:21:50.847Z,37.91
2017-08-28T11:22:52.062Z,38.64
2017-08-28T11:23:46.067Z,38.44
2017-08-28T11:24:46.111Z,40.68
2017-08-28T11:25:41.177Z,41.39
2017-08-28T11:26:35.269Z,42.20
2017-08-28T11:27:24.418Z,40.40
2017-08-28T11:28:13.373Z,40.12
2017-08-28T11:29:13.497Z,41.80
2017-08-28T11:30:07.597Z,38.37
2017-08-28T11:31:01.675Z,37.54
2017-08-28T11:31:55.707Z,38.08
2017-08-28T11:32:49.928Z,37.08
2017-08-28T11:33:50.881Z,36.98
2017-08-28T11:34:46.071Z,37.39
2017-08-28T11:35:35.052Z,38.95
2017-08-28T11:36:29.143Z,38.96
2017-08-28T11:37:23.301Z,37.15
2017-08-28T11:38:12.337Z,38.38
2017-08-28T11:39:13.355Z,36.80
2017-08-28T11:40:13.480Z,37.14
2017-08-28T11:41:07.617Z,36.88
2017-08-28T11:42:07.642Z,35.88
2017-08-28T11:43:02.733Z,36.56
2017-08-28T11:44:02.844Z,35.63
2017-08-28T11:44:57.881Z,36.67
2017-08-28T11:45:58.014Z,36.99
2017-08-28T11:46:53.001Z,36.82
2017-08-28T11:47:47.095Z,33.57
2017-08-28T11:48:47.230Z,34.83
2017-08-28T11:49:47.532Z,36.07
2017-08-28T11:50:41.366Z,36.63
2017-08-28T11:51:30.497Z,37.67
2017-08-28T11:52:30.485Z,40.09